Oostburg, Wisconsin
Current Conditions -  °F | °C
As of 6:53 PM on Friday 24 Oct 2014 (Local Time) from KSBM Reporting Station
Haze Haze  
Wind Chill: 51°   Ceiling: Unl
Heat Index: 51°   Visibility: 6mi
Dew Point: 48°   Wind: 0mph
Humidity: 89%   Direction: NA
Pressure: 29.93"   Gusts: NA
Location:  43.62°N, 87.79°W
Report Text: KSBM 242353Z AUTO 00000KT 6SM BR SCT080 11/09 A2993 RMK AO2 SLP139 T01060089 10172 20100 53000
Loading
Personal Weather Stations






























Interactive Weather Map New forecast layout! Learn more

10-Day Weather Forecast

Advertisements
Track Severe Weather on mobile